createdAt,value
2018-02-27T00:02:05.979Z,19.55
2018-02-27T00:04:33.410Z,19.50
2018-02-27T00:07:00.839Z,20.25
2018-02-27T00:09:28.284Z,19.40
2018-02-27T00:11:55.917Z,20.58
2018-02-27T00:14:23.352Z,19.75
2018-02-27T00:16:50.792Z,21.08
2018-02-27T00:19:18.240Z,22.08
2018-02-27T00:21:45.671Z,19.48
2018-02-27T00:24:13.123Z,20.92
2018-02-27T00:26:40.571Z,21.85
2018-02-27T00:29:08.024Z,21.48
2018-02-27T00:31:35.464Z,20.27
2018-02-27T00:34:02.917Z,21.98
2018-02-27T00:36:30.347Z,23.17
2018-02-27T00:38:57.775Z,21.33
2018-02-27T00:41:25.253Z,21.75
2018-02-27T00:43:52.679Z,19.90
2018-02-27T00:46:20.111Z,22.27
2018-02-27T00:48:47.558Z,21.17
2018-02-27T00:51:15.019Z,21.33
2018-02-27T00:53:42.477Z,21.77
2018-02-27T00:56:09.908Z,20.20
2018-02-27T00:58:37.348Z,23.38
2018-02-27T01:01:04.801Z,21.65
2018-02-27T01:03:32.235Z,22.85
2018-02-27T01:05:59.663Z,23.85
2018-02-27T01:08:27.111Z,21.73
2018-02-27T01:10:54.547Z,23.83
2018-02-27T01:13:22.025Z,22.48
2018-02-27T01:15:49.430Z,23.52
2018-02-27T01:18:16.877Z,21.90
2018-02-27T01:20:44.405Z,23.20
2018-02-27T01:23:11.843Z,21.17
2018-02-27T01:25:39.276Z,23.10
2018-02-27T01:28:06.724Z,23.00
2018-02-27T01:30:34.158Z,22.55
2018-02-27T01:33:01.610Z,23.50
2018-02-27T01:35:29.044Z,22.50
2018-02-27T01:37:56.491Z,21.45
2018-02-27T01:40:23.935Z,21.67
2018-02-27T01:42:51.377Z,23.40
2018-02-27T01:45:18.824Z,24.77
2018-02-27T01:47:46.263Z,23.30
2018-02-27T01:50:13.822Z,23.33
2018-02-27T01:52:41.267Z,22.20
2018-02-27T01:55:08.703Z,21.55
2018-02-27T01:57:36.148Z,23.12
2018-02-27T02:00:03.584Z,22.17
2018-02-27T02:02:31.046Z,23.80
2018-02-27T02:04:58.476Z,25.30
2018-02-27T02:07:25.907Z,24.48
2018-02-27T02:09:53.351Z,23.10
2018-02-27T02:12:20.783Z,25.30
2018-02-27T02:14:48.235Z,25.00
2018-02-27T02:17:15.674Z,24.05
2018-02-27T02:19:43.112Z,25.50
2018-02-27T02:22:10.564Z,24.37
2018-02-27T02:24:38.007Z,25.00
2018-02-27T02:27:05.454Z,24.63
2018-02-27T02:29:32.880Z,25.58
2018-02-27T02:32:00.315Z,24.63
2018-02-27T02:34:27.767Z,25.48
2018-02-27T02:36:55.198Z,23.55
2018-02-27T02:39:22.649Z,24.87
2018-02-27T02:55:20.861Z,26.30
2018-02-27T02:57:48.501Z,24.55
2018-02-27T03:00:15.979Z,24.25
2018-02-27T03:02:43.408Z,25.08
2018-02-27T03:05:10.843Z,25.10
2018-02-27T03:07:38.282Z,24.92
2018-02-27T03:10:05.727Z,23.90
2018-02-27T03:12:33.150Z,24.40
2018-02-27T03:15:00.589Z,23.48
2018-02-27T03:17:28.035Z,25.60
2018-02-27T03:19:55.475Z,24.85
2018-02-27T03:22:22.912Z,24.65
2018-02-27T03:24:50.339Z,24.77
2018-02-27T03:27:17.781Z,25.17
2018-02-27T03:29:45.264Z,23.77
2018-02-27T03:32:12.692Z,24.90
2018-02-27T03:34:40.123Z,25.30
2018-02-27T03:37:07.571Z,24.63
2018-02-27T03:39:34.995Z,25.50
2018-02-27T03:42:02.443Z,25.65
2018-02-27T03:44:29.868Z,25.35
2018-02-27T03:46:57.304Z,24.85
2018-02-27T03:49:24.748Z,25.17
2018-02-27T03:51:52.175Z,26.90
2018-02-27T03:54:19.600Z,24.92
2018-02-27T03:56:47.047Z,24.60
2018-02-27T03:59:14.475Z,24.92
2018-02-27T04:01:41.907Z,25.35
2018-02-27T04:04:09.352Z,25.30
2018-02-27T04:06:36.782Z,24.37
2018-02-27T04:09:04.220Z,23.80
2018-02-27T04:11:31.655Z,25.50
2018-02-27T04:13:59.087Z,24.77
2018-02-27T04:16:26.531Z,24.42
2018-02-27T04:18:53.968Z,24.63
2018-02-27T04:21:21.400Z,24.83
2018-02-27T04:23:48.847Z,24.98
2018-02-27T04:26:16.283Z,25.52
2018-02-27T04:28:43.725Z,24.30
2018-02-27T04:31:11.172Z,24.15
2018-02-27T04:33:38.610Z,25.00
2018-02-27T04:36:06.064Z,26.30
2018-02-27T04:38:33.496Z,24.83
2018-02-27T04:41:00.927Z,24.70
2018-02-27T04:43:28.371Z,25.98
2018-02-27T04:45:55.916Z,24.70
2018-02-27T04:48:23.395Z,25.60
2018-02-27T04:50:50.828Z,25.60
2018-02-27T04:53:18.414Z,24.85
2018-02-27T04:55:45.875Z,25.10
2018-02-27T04:58:13.310Z,24.52
2018-02-27T05:00:40.760Z,24.52
2018-02-27T05:03:08.256Z,23.83
2018-02-27T05:05:35.656Z,23.98
2018-02-27T05:08:03.098Z,25.58
2018-02-27T05:10:30.543Z,24.35
2018-02-27T05:12:57.970Z,24.73
2018-02-27T05:15:25.420Z,24.75
2018-02-27T05:17:52.924Z,26.17
2018-02-27T05:20:20.549Z,25.12
2018-02-27T05:22:48.007Z,24.85
2018-02-27T05:25:15.435Z,24.90
2018-02-27T05:27:42.862Z,28.75
2018-02-27T05:30:10.300Z,27.02
2018-02-27T05:32:37.731Z,25.98
2018-02-27T05:35:05.189Z,23.65
2018-02-27T05:37:32.619Z,26.98
2018-02-27T05:40:00.060Z,27.35
2018-02-27T05:42:27.499Z,26.70
2018-02-27T05:44:54.939Z,25.90
2018-02-27T05:47:22.387Z,25.65
2018-02-27T05:49:49.821Z,27.00
2018-02-27T05:52:17.250Z,26.95
2018-02-27T05:54:44.683Z,26.25
2018-02-27T05:57:12.123Z,27.70
2018-02-27T05:59:39.564Z,27.02
2018-02-27T06:02:07.011Z,29.27
2018-02-27T06:04:34.447Z,26.05
2018-02-27T06:07:01.895Z,26.10
2018-02-27T06:09:29.332Z,25.83
2018-02-27T06:11:56.778Z,25.33
2018-02-27T06:14:24.222Z,26.80
2018-02-27T06:16:51.668Z,24.75
2018-02-27T06:19:19.095Z,26.70
2018-02-27T06:21:46.547Z,27.85
2018-02-27T06:24:14.063Z,27.77
2018-02-27T06:26:41.517Z,26.58
2018-02-27T06:29:08.955Z,25.23
2018-02-27T06:31:36.395Z,26.25
2018-02-27T06:34:03.865Z,25.65
2018-02-27T06:36:31.309Z,27.73
2018-02-27T06:38:58.731Z,25.20
2018-02-27T06:41:26.176Z,27.48
2018-02-27T06:43:53.625Z,25.67
2018-02-27T06:46:21.054Z,25.67
2018-02-27T06:48:48.486Z,25.12
2018-02-27T06:51:15.927Z,27.62
2018-02-27T06:53:43.408Z,27.45
2018-02-27T06:56:10.848Z,27.02
2018-02-27T06:58:38.272Z,25.88
2018-02-27T07:01:05.715Z,27.90
2018-02-27T07:03:33.148Z,26.58
2018-02-27T07:06:00.579Z,26.40
2018-02-27T07:08:28.043Z,25.75
2018-02-27T07:10:55.472Z,25.70
2018-02-27T07:13:22.906Z,27.98
2018-02-27T07:15:50.352Z,26.52
2018-02-27T07:18:17.799Z,25.42
2018-02-27T07:20:45.248Z,26.17
2018-02-27T07:23:12.689Z,26.52
2018-02-27T07:25:40.124Z,27.55
2018-02-27T07:28:07.569Z,27.33
2018-02-27T07:30:35.008Z,28.48
2018-02-27T07:33:02.492Z,27.67
2018-02-27T07:35:29.927Z,27.00
2018-02-27T07:37:57.367Z,28.33
2018-02-27T07:40:24.825Z,26.08
2018-02-27T07:42:52.260Z,26.52
2018-02-27T07:45:19.703Z,26.90
2018-02-27T07:47:47.158Z,27.48
2018-02-27T07:50:14.584Z,27.02
2018-02-27T07:52:42.034Z,29.35
2018-02-27T07:55:09.477Z,27.48
2018-02-27T07:57:36.910Z,26.95
2018-02-27T08:00:04.342Z,28.75
2018-02-27T08:02:31.780Z,27.05
2018-02-27T08:04:59.436Z,27.15
2018-02-27T08:07:26.870Z,27.58
2018-02-27T08:09:54.308Z,27.70
2018-02-27T08:12:21.755Z,25.88
2018-02-27T08:14:49.183Z,27.23
2018-02-27T08:17:16.628Z,28.33
2018-02-27T08:19:44.071Z,28.40
2018-02-27T08:22:11.494Z,29.20
2018-02-27T08:24:38.946Z,29.05
2018-02-27T08:27:06.387Z,29.80
2018-02-27T08:29:33.823Z,26.55
2018-02-27T08:32:01.274Z,27.55
2018-02-27T08:34:28.712Z,28.23
2018-02-27T08:36:56.160Z,29.92
2018-02-27T08:39:23.603Z,29.10
2018-02-27T08:41:51.035Z,30.80
2018-02-27T08:44:18.478Z,31.50
2018-02-27T08:46:45.927Z,31.75
2018-02-27T08:49:13.368Z,28.98
2018-02-27T08:51:40.837Z,29.50
2018-02-27T08:54:08.263Z,28.58
2018-02-27T08:56:35.701Z,30.77
2018-02-27T08:59:03.139Z,31.42
2018-02-27T09:01:30.568Z,32.50
2018-02-27T09:03:58.015Z,29.58
2018-02-27T09:06:25.452Z,28.50
2018-02-27T09:08:52.885Z,29.08
2018-02-27T09:11:20.328Z,29.92
2018-02-27T09:13:47.762Z,29.45
2018-02-27T09:16:15.189Z,31.27
2018-02-27T09:18:42.631Z,28.70
2018-02-27T09:21:10.075Z,31.48
2018-02-27T09:23:37.508Z,28.10
2018-02-27T09:26:04.955Z,32.95
2018-02-27T09:28:32.383Z,31.67
2018-02-27T09:30:59.832Z,31.95
2018-02-27T09:33:27.285Z,32.78
2018-02-27T09:35:54.699Z,33.38
2018-02-27T09:38:22.166Z,32.35
2018-02-27T09:40:49.560Z,31.58
2018-02-27T09:43:17.028Z,32.05
2018-02-27T09:45:44.474Z,33.67
2018-02-27T09:48:11.917Z,32.03
2018-02-27T09:50:39.364Z,33.92
2018-02-27T09:53:06.791Z,31.35
2018-02-27T09:55:34.228Z,32.13
2018-02-27T09:58:01.717Z,34.35
2018-02-27T10:00:29.124Z,33.78
2018-02-27T10:02:56.567Z,32.30
2018-02-27T10:05:24.053Z,34.60
2018-02-27T10:07:51.475Z,33.25
2018-02-27T10:10:18.920Z,34.35
2018-02-27T10:12:46.368Z,36.40
2018-02-27T10:15:13.799Z,33.63
2018-02-27T10:17:41.247Z,32.83
2018-02-27T10:20:08.680Z,33.60
2018-02-27T10:22:36.105Z,35.33
2018-02-27T10:25:03.566Z,33.00
2018-02-27T10:27:31.072Z,32.75
2018-02-27T10:29:58.467Z,34.83
2018-02-27T10:32:25.895Z,35.38
2018-02-27T10:34:53.342Z,36.42
2018-02-27T10:37:20.784Z,33.60
2018-02-27T10:39:48.184Z,35.13
2018-02-27T10:42:15.676Z,36.85
2018-02-27T10:44:43.143Z,36.92
2018-02-27T10:47:10.586Z,35.88
2018-02-27T10:49:38.036Z,35.88
2018-02-27T10:52:05.484Z,33.92
2018-02-27T10:54:32.925Z,34.85
2018-02-27T10:57:00.375Z,35.08
2018-02-27T10:59:27.812Z,35.08
2018-02-27T11:01:56.222Z,36.38
2018-02-27T11:04:23.668Z,35.35
2018-02-27T11:06:51.118Z,33.85
2018-02-27T11:09:18.699Z,34.10
2018-02-27T11:11:46.135Z,34.28
2018-02-27T11:14:13.598Z,33.67
2018-02-27T11:16:41.036Z,35.33
2018-02-27T11:19:08.480Z,36.85
2018-02-27T11:21:35.928Z,35.20
2018-02-27T11:24:03.364Z,35.40
2018-02-27T11:26:30.811Z,36.55
2018-02-27T11:28:58.267Z,34.00
2018-02-27T11:31:25.710Z,35.00
2018-02-27T11:33:53.147Z,31.98
2018-02-27T11:36:20.602Z,35.22
2018-02-27T11:38:48.036Z,35.28
2018-02-27T11:41:15.480Z,36.80
2018-02-27T11:43:42.923Z,37.05
2018-02-27T11:46:10.363Z,33.20
2018-02-27T11:48:37.814Z,35.28
2018-02-27T11:51:05.238Z,35.08
2018-02-27T11:53:32.827Z,36.20
2018-02-27T11:56:00.350Z,34.25
2018-02-27T11:58:28.058Z,34.50
2018-02-27T12:00:55.492Z,33.53
2018-02-27T12:03:22.968Z,37.40
2018-02-27T12:05:50.409Z,35.17
2018-02-27T12:08:17.888Z,32.55
2018-02-27T12:10:45.312Z,32.85
2018-02-27T12:13:12.764Z,34.58
2018-02-27T12:15:40.204Z,34.75
2018-02-27T12:18:07.651Z,33.50
2018-02-27T12:20:35.088Z,34.40
2018-02-27T12:23:02.530Z,35.25
2018-02-27T12:25:29.974Z,35.47
2018-02-27T12:27:57.416Z,36.15
2018-02-27T12:30:24.854Z,34.88
2018-02-27T12:32:52.285Z,36.58
2018-02-27T12:35:19.719Z,34.55
2018-02-27T12:37:47.151Z,36.13
2018-02-27T12:40:14.604Z,35.80
2018-02-27T12:42:42.040Z,36.30
2018-02-27T12:45:09.522Z,35.50
2018-02-27T12:47:36.963Z,32.78
2018-02-27T12:50:04.400Z,35.20
2018-02-27T12:52:31.842Z,36.28
2018-02-27T12:54:59.270Z,36.47
2018-02-27T12:57:26.707Z,33.30
2018-02-27T12:59:54.160Z,34.08
2018-02-27T13:02:21.589Z,32.55
2018-02-27T13:04:49.041Z,34.60
2018-02-27T13:07:16.473Z,35.65
2018-02-27T13:09:43.930Z,33.97
2018-02-27T13:12:11.378Z,33.08
2018-02-27T13:14:38.804Z,33.97
2018-02-27T13:17:06.239Z,36.92
2018-02-27T13:19:33.680Z,34.80
2018-02-27T13:22:01.124Z,36.38
2018-02-27T13:24:28.572Z,38.90
2018-02-27T13:26:56.010Z,37.50
2018-02-27T13:29:23.444Z,38.67
2018-02-27T13:31:50.879Z,37.90
2018-02-27T13:34:18.316Z,37.35
2018-02-27T13:36:45.742Z,38.08
2018-02-27T13:39:13.193Z,38.33
2018-02-27T13:41:40.636Z,36.80
2018-02-27T13:44:08.079Z,36.15
2018-02-27T13:46:35.527Z,36.92
2018-02-27T13:49:04.119Z,36.33
2018-02-27T13:51:30.403Z,35.95
2018-02-27T13:53:57.840Z,36.55
2018-02-27T13:56:25.279Z,33.28
2018-02-27T13:58:52.728Z,36.03
2018-02-27T14:01:20.158Z,36.58
2018-02-27T14:03:47.595Z,36.08
2018-02-27T14:06:15.043Z,40.10
2018-02-27T14:08:42.486Z,37.53
2018-02-27T14:11:09.952Z,39.80
2018-02-27T14:13:37.383Z,37.83
2018-02-27T14:16:04.824Z,37.58
2018-02-27T14:18:32.276Z,37.15
2018-02-27T14:20:59.720Z,38.28
2018-02-27T14:23:27.175Z,39.70
2018-02-27T14:25:54.608Z,38.22
2018-02-27T14:28:22.047Z,37.78
2018-02-27T14:30:49.496Z,40.33
2018-02-27T14:33:16.931Z,40.00
2018-02-27T14:35:44.570Z,38.25
2018-02-27T14:38:12.031Z,38.70
2018-02-27T14:40:39.475Z,39.90
2018-02-27T14:43:06.902Z,38.58
2018-02-27T14:45:34.349Z,40.42
2018-02-27T14:48:01.790Z,37.78
2018-02-27T14:50:29.227Z,39.33
2018-02-27T14:52:56.667Z,38.42
2018-02-27T14:55:24.111Z,38.83
2018-02-27T14:57:51.577Z,38.95
2018-02-27T15:00:19.004Z,38.10
2018-02-27T15:02:46.438Z,38.42
2018-02-27T15:05:13.876Z,38.10
2018-02-27T15:07:41.330Z,35.38
2018-02-27T15:10:08.773Z,36.80
2018-02-27T15:12:36.224Z,38.67
2018-02-27T15:15:03.665Z,37.17
2018-02-27T15:17:31.104Z,37.55
2018-02-27T15:19:58.555Z,39.53
2018-02-27T15:22:25.994Z,37.47
2018-02-27T15:24:53.422Z,38.13
2018-02-27T15:27:20.888Z,36.60
2018-02-27T15:29:48.322Z,35.28
2018-02-27T15:32:15.759Z,33.65
2018-02-27T15:34:43.247Z,37.20
2018-02-27T15:37:10.688Z,36.95
2018-02-27T15:39:38.135Z,34.15
2018-02-27T15:42:05.596Z,37.70
2018-02-27T15:44:33.031Z,38.35
2018-02-27T15:47:00.485Z,36.30
2018-02-27T15:49:27.919Z,36.03
2018-02-27T15:51:55.349Z,36.45
2018-02-27T15:54:22.813Z,36.63
2018-02-27T15:56:50.248Z,38.80
2018-02-27T15:59:17.708Z,35.47
2018-02-27T16:01:45.159Z,37.90
2018-02-27T16:04:12.608Z,33.97
2018-02-27T16:06:40.106Z,35.97
2018-02-27T16:09:07.491Z,37.38
2018-02-27T16:11:34.932Z,38.33
2018-02-27T16:14:02.379Z,37.42
2018-02-27T16:16:29.820Z,38.83
2018-02-27T16:18:57.291Z,36.65
2018-02-27T16:21:24.746Z,48.38
2018-02-27T16:23:52.188Z,37.33
2018-02-27T16:26:19.624Z,37.10
2018-02-27T16:28:47.077Z,33.88
2018-02-27T16:31:14.512Z,37.67
2018-02-27T16:33:41.952Z,35.83
2018-02-27T16:36:09.400Z,34.80
2018-02-27T16:38:36.840Z,36.60
2018-02-27T16:41:04.276Z,36.60
2018-02-27T16:43:31.729Z,37.28
2018-02-27T16:45:59.172Z,36.10
2018-02-27T16:48:26.619Z,35.30
2018-02-27T16:50:54.063Z,38.10
2018-02-27T16:53:21.496Z,36.25
2018-02-27T16:55:48.952Z,37.72
2018-02-27T16:58:16.400Z,34.45
2018-02-27T17:00:43.832Z,35.60
2018-02-27T17:03:11.283Z,36.17
2018-02-27T17:05:38.737Z,36.03
2018-02-27T17:08:06.183Z,35.33
2018-02-27T17:10:33.635Z,38.60
2018-02-27T17:13:01.087Z,39.05
2018-02-27T17:15:28.510Z,36.25
2018-02-27T17:17:55.960Z,38.72
2018-02-27T17:20:23.408Z,35.63
2018-02-27T17:22:50.855Z,37.67
2018-02-27T17:25:18.296Z,39.58
2018-02-27T17:27:45.751Z,36.03
2018-02-27T17:30:13.226Z,41.70
2018-02-27T17:32:40.667Z,39.85
2018-02-27T17:35:08.128Z,37.90
2018-02-27T17:37:35.571Z,37.85
2018-02-27T17:40:03.036Z,37.90
2018-02-27T17:42:30.483Z,38.45
2018-02-27T17:44:57.949Z,38.80
2018-02-27T17:47:25.399Z,39.15
2018-02-27T17:49:52.856Z,39.92
2018-02-27T17:52:20.295Z,36.85
2018-02-27T17:54:47.745Z,37.00
2018-02-27T17:57:15.187Z,37.58
2018-02-27T17:59:42.646Z,36.45
2018-02-27T18:02:10.088Z,39.88
2018-02-27T18:04:37.529Z,40.40
2018-02-27T18:07:04.988Z,41.47
2018-02-27T18:09:32.425Z,39.53
2018-02-27T18:11:59.863Z,40.92
2018-02-27T18:14:27.316Z,41.30
2018-02-27T18:16:54.765Z,40.40
2018-02-27T18:19:22.207Z,39.65
2018-02-27T18:21:49.648Z,41.55
2018-02-27T18:24:17.112Z,39.00
2018-02-27T18:26:44.567Z,41.85
2018-02-27T18:29:12.004Z,38.55
2018-02-27T18:31:39.481Z,38.40
2018-02-27T18:34:09.308Z,41.47
2018-02-27T18:36:36.822Z,43.15
2018-02-27T18:39:04.313Z,41.92
2018-02-27T18:41:33.110Z,42.20
2018-02-27T18:44:04.470Z,41.10
2018-02-27T18:46:32.112Z,41.65
2018-02-27T18:49:00.993Z,42.08
2018-02-27T18:51:28.429Z,41.28
2018-02-27T18:53:55.880Z,41.53
2018-02-27T18:56:23.625Z,39.88
2018-02-27T18:58:54.501Z,40.65
2018-02-27T19:01:21.956Z,42.42
2018-02-27T19:03:51.279Z,41.85
2018-02-27T19:06:18.780Z,42.22
2018-02-27T19:08:46.224Z,41.58
2018-02-27T19:11:13.680Z,42.35
2018-02-27T19:13:42.406Z,43.25
2018-02-27T19:16:10.793Z,41.85
2018-02-27T19:18:39.387Z,43.97
2018-02-27T19:21:06.832Z,45.08
2018-02-27T19:23:34.283Z,42.95
2018-02-27T19:26:01.725Z,44.47
2018-02-27T19:28:29.171Z,44.35
2018-02-27T19:30:56.625Z,44.17
2018-02-27T19:33:24.079Z,42.75
2018-02-27T19:35:51.561Z,42.17
2018-02-27T19:38:19.012Z,46.65
2018-02-27T19:40:46.483Z,41.75
2018-02-27T19:43:13.928Z,41.45
2018-02-27T19:45:41.366Z,41.90
2018-02-27T19:48:08.836Z,45.72
2018-02-27T19:50:36.287Z,45.85
2018-02-27T19:53:03.728Z,44.22
2018-02-27T19:55:31.196Z,43.92
2018-02-27T19:57:58.653Z,46.17
2018-02-27T20:00:26.138Z,45.80
2018-02-27T20:02:53.660Z,45.25
2018-02-27T20:05:21.130Z,43.53
2018-02-27T20:07:48.579Z,47.13
2018-02-27T20:10:16.136Z,43.22
2018-02-27T20:12:43.741Z,46.70
2018-02-27T20:15:11.297Z,44.65
2018-02-27T20:17:44.553Z,43.33
2018-02-27T20:20:12.060Z,43.97
2018-02-27T20:22:45.589Z,41.08
2018-02-27T20:25:13.113Z,40.22
2018-02-27T20:27:40.590Z,42.13
2018-02-27T20:30:08.073Z,42.78
2018-02-27T20:32:35.661Z,43.80
2018-02-27T20:35:03.462Z,42.35
2018-02-27T20:37:31.069Z,43.38
2018-02-27T20:39:58.610Z,44.80
2018-02-27T20:42:26.081Z,44.90
2018-02-27T20:44:53.535Z,44.13
2018-02-27T20:47:20.991Z,44.75
2018-02-27T20:49:48.458Z,44.15
2018-02-27T20:52:15.917Z,45.12
2018-02-27T20:54:43.548Z,43.50
2018-02-27T20:57:11.005Z,42.35
2018-02-27T20:59:38.476Z,41.58
2018-02-27T21:02:05.965Z,43.70
2018-02-27T21:04:33.429Z,43.13
2018-02-27T21:07:00.891Z,44.55
2018-02-27T21:09:28.357Z,46.33
2018-02-27T21:11:55.811Z,44.47
2018-02-27T21:14:23.360Z,46.22
2018-02-27T21:16:50.805Z,43.35
2018-02-27T21:19:18.493Z,44.83
2018-02-27T21:21:45.952Z,43.87
2018-02-27T21:24:13.404Z,44.22
2018-02-27T21:26:40.860Z,47.33
2018-02-27T21:29:08.309Z,44.63
2018-02-27T21:31:35.883Z,46.33
2018-02-27T21:34:03.369Z,47.35
2018-02-27T21:36:30.849Z,46.55
2018-02-27T21:38:59.405Z,48.60
2018-02-27T21:41:26.868Z,46.53
2018-02-27T21:43:55.776Z,44.20
2018-02-27T21:46:23.249Z,47.53
2018-02-27T21:48:50.733Z,46.92
2018-02-27T21:51:18.180Z,48.55
2018-02-27T21:53:48.010Z,48.55
2018-02-27T21:56:15.479Z,48.67
2018-02-27T21:58:43.340Z,45.17
2018-02-27T22:01:10.798Z,48.28
2018-02-27T22:03:39.368Z,47.40
2018-02-27T22:06:06.847Z,48.20
2018-02-27T22:08:34.324Z,49.00
2018-02-27T22:11:02.491Z,47.58
2018-02-27T22:13:29.922Z,46.37
2018-02-27T22:15:57.376Z,47.95
2018-02-27T22:18:24.820Z,49.72
2018-02-27T22:20:52.385Z,49.20
2018-02-27T22:23:20.162Z,48.28
2018-02-27T22:25:48.276Z,47.72
2018-02-27T22:28:15.750Z,50.00
2018-02-27T22:30:43.197Z,49.03
2018-02-27T22:33:10.677Z,50.58
2018-02-27T22:35:38.583Z,51.67
2018-02-27T22:38:06.404Z,50.53
2018-02-27T22:40:33.878Z,50.50
2018-02-27T22:43:01.337Z,49.55
2018-02-27T22:45:28.847Z,49.92
2018-02-27T22:47:59.551Z,50.12
2018-02-27T22:50:43.221Z,48.75
2018-02-27T22:53:10.678Z,46.75
2018-02-27T22:55:38.183Z,48.60
2018-02-27T22:58:05.875Z,48.67
2018-02-27T23:00:40.457Z,48.80
2018-02-27T23:03:08.076Z,51.20
2018-02-27T23:05:35.595Z,51.05
2018-02-27T23:08:03.448Z,51.40
2018-02-27T23:10:30.971Z,51.60
2018-02-27T23:12:58.551Z,51.70
2018-02-27T23:15:25.999Z,49.25
2018-02-27T23:17:53.453Z,52.72
2018-02-27T23:20:21.094Z,52.58
2018-02-27T23:22:48.601Z,52.90
2018-02-27T23:38:42.264Z,58.95
2018-02-27T23:41:09.715Z,51.90
2018-02-27T23:43:37.159Z,55.50
2018-02-27T23:46:04.591Z,57.60
2018-02-27T23:48:32.053Z,57.55
2018-02-27T23:50:59.492Z,56.50
2018-02-27T23:53:26.918Z,55.58
2018-02-27T23:55:54.378Z,55.53
2018-02-27T23:58:21.807Z,55.95
